Corpus Christi Naval Air Station/Truax Field
KNGP : now visible

Airfield :











YOU CAN JOIN US ON...

 
LOGIN :

Register | Disclaimer

   EN    FR    IT 

 









Legend :    VFR   Marginal VFR   IFR   Intensive IFR   Very Intensive IFR
Visi :
Ceiling :
>= 8 km
>= 3000ft
5 to 8 km
1000 to 3000 ft
1500m to 5 km
500 to 1000 ft
800 to 1500m
200 to 500 ft
< 800m
< 200 ft
Symbols :   Thunderstorms  Fog  Heavy snow  Heavy precipitations  Wind > 20 kt







- Airport Elevation : 18 ft


KNGP - Corpus Christi Naval Air Station/Truax Field

CURRENT METAR :
  • 200856Z AUTO 16011KT 10SM FEW024 FEW029 SCT035 29/25 A2988 RMK AO2 SLP117 T02890250 51006 $

EXPIRED METARs :
  • 200804Z AUTO 17013G21KT 10SM SCT024 BKN034 29/26 A2987 RMK AO2 T02890256 $
  • 200756Z AUTO 17014G21KT 10SM BKN025 BKN032 29/26 A2987 RMK AO2 SLP115 T02890256 $
  • 200656Z AUTO 15017G23KT 10SM FEW023 29/26 A2987 RMK AO2 SLP115 T02890256 $

TAF AMD TAF KNGP
Valid from the 20 at 09:00 until the 21 at 07:00 UTC


2009/2107 16012KT 9999 FEW020 SCT035 SCT300 QNH2986INS
TEMPO 2009/2013 FEW018 BKN028 BKN300
FM201300 16010KT 9999 VCTS FEW018 SCT030CB SCT060 BKN300 QNH2990INS
FM201500 15013G19KT 9999 VCTS SCT018 SCT030CB BKN060 BKN300 QNH2993INS
TEMPO 2015/2018 VRB20G30KT 2400 +TSRA SCT014 BKN022CB OVC060
FM201800 14018G26KT 9999 FEW020 SCT035 SCT200 BKN300 510005 QNH2987INS
FM202100 13020G28KT 9999 FEW025 FEW040 SCT200 BKN300 510005 QNH2987INS
FM210100 14018G26KT 9999 FEW018 SCT025 SCT300 510055 QNH2991INS
TEMPO 2101/2103 14016G24KT FEW018 BKN025 BKN300
FM210300 15013G19KT 9999 FEW015 BKN025 BKN300 510055 QNH2995INS AUTOMATED SENSOR METWATCH 2009 TIL 2011 T28/2012Z T33/2019Z AMD 0900 FN20044
No reported NOTAMs for that airfield.



MET'MAP, your aeronautical weather chart ! - Copyright ORBIFLY December 2007 - Disclaimer

ORBIFLY MET'MAP TEAM :

Programming & Development : Alexandra Zaïnal
Concept & Development : Baudouin d'Aumeries
Co-Development & Prog : Marc-Olivier Méhu
Technical & hardware support : Manuel Goepfert

Contact : metmap@orbifly.com




SOURCES & CREDITS :

   NOAA       Earth
Advisory